Time;durP1;ratioP1;P1;durP2;ratioP2;P2;SDS_P1;SDS_P2;PMS_P1;PMS_P2;Temp;Humidity;BMP_temperature;BMP_pressure;BME280_temperature;BME280_humidity;BME280_pressure;Samples;Min_cycle;Max_cycle;Signal;HPM_P1;HPM_P2
2023/12/22 00:01:16;;;;;;;6.97;4.85;;;22.00;99.90;;;;;;4992749;28;20058;-53
2023/12/22 00:03:43;;;;;;;8.00;4.88;;;22.00;99.90;;;;;;4992922;28;20382;-54
2023/12/22 00:06:11;;;;;;;5.70;4.20;;;21.90;99.90;;;;;;4992608;28;20497;-54
2023/12/22 00:08:37;;;;;;;7.03;4.68;;;21.90;99.90;;;;;;4992744;28;20065;-54
2023/12/22 00:11:03;;;;;;;6.43;5.13;;;21.90;99.90;;;;;;4992777;28;20050;-54
2023/12/22 00:13:29;;;;;;;5.70;4.25;;;21.90;99.90;;;;;;4992565;28;20422;-54
2023/12/22 00:15:55;;;;;;;5.85;4.32;;;21.90;99.90;;;;;;4991341;28;20029;-54
2023/12/22 00:18:21;;;;;;;5.90;4.07;;;21.90;99.90;;;;;;4992554;28;20540;-53
2023/12/22 00:20:46;;;;;;;6.55;4.07;;;21.90;99.90;;;;;;4992731;28;20030;-54
2023/12/22 00:23:12;;;;;;;5.60;4.25;;;21.80;99.90;;;;;;4992652;28;20493;-54
2023/12/22 00:25:38;;;;;;;7.22;4.88;;;21.80;99.90;;;;;;4992537;28;20106;-53
2023/12/22 00:28:04;;;;;;;7.18;4.45;;;21.80;99.90;;;;;;4993544;28;20038;-52
2023/12/22 00:30:30;;;;;;;7.90;4.47;;;21.80;99.90;;;;;;4996239;28;20029;-53
2023/12/22 00:32:55;;;;;;;5.32;3.85;;;21.80;99.90;;;;;;4996297;28;20026;-53
2023/12/22 00:35:21;;;;;;;6.65;4.43;;;21.80;99.90;;;;;;4994928;28;20035;-53
2023/12/22 00:37:47;;;;;;;7.47;4.65;;;21.80;99.90;;;;;;4996355;28;20382;-53
2023/12/22 00:40:13;;;;;;;5.97;4.32;;;21.70;99.90;;;;;;4996119;28;20077;-52
2023/12/22 00:42:39;;;;;;;5.82;3.95;;;21.70;99.90;;;;;;4996095;28;20026;-53
2023/12/22 00:45:05;;;;;;;5.85;4.07;;;21.70;99.90;;;;;;4996078;28;20023;-53
2023/12/22 00:47:31;;;;;;;6.10;4.25;;;21.70;99.90;;;;;;4994776;28;20394;-53
2023/12/22 00:49:57;;;;;;;7.30;4.10;;;21.70;99.90;;;;;;4995800;28;20026;-52
2023/12/22 00:52:23;;;;;;;6.03;4.28;;;21.70;99.90;;;;;;4994687;28;20034;-53
2023/12/22 00:54:49;;;;;;;6.47;3.92;;;21.60;99.90;;;;;;4996009;28;20014;-53
2023/12/22 00:57:15;;;;;;;7.03;3.75;;;21.60;99.90;;;;;;4995872;28;20517;-53
2023/12/22 00:59:47;;;;;;;6.35;4.13;;;21.60;99.90;;;;;;4995782;28;20035;-53
2023/12/22 01:02:14;;;;;;;5.80;3.63;;;21.60;99.90;;;;;;5018798;23;20503;-49
2023/12/22 01:04:40;;;;;;;6.43;4.10;;;21.60;99.90;;;;;;4995549;28;20483;-50
2023/12/22 01:07:08;;;;;;;7.70;4.18;;;21.60;99.90;;;;;;4995515;28;20034;-50
2023/12/22 01:09:33;;;;;;;5.55;3.78;;;21.60;99.90;;;;;;4995506;28;20108;-49
2023/12/22 01:12:02;;;;;;;5.55;4.30;;;21.60;99.90;;;;;;4995295;28;20471;-50
2023/12/22 01:14:28;;;;;;;6.43;3.78;;;21.60;99.90;;;;;;4995391;28;20494;-50
2023/12/22 01:16:54;;;;;;;7.57;3.90;;;21.50;99.90;;;;;;4995437;28;20105;-50
2023/12/22 01:19:20;;;;;;;4.75;3.80;;;21.60;99.90;;;;;;4994229;28;20118;-50
2023/12/22 01:21:46;;;;;;;5.30;3.78;;;21.50;99.90;;;;;;4995558;28;20034;-50
2023/12/22 01:24:12;;;;;;;5.47;3.55;;;21.50;99.90;;;;;;4995287;28;20069;-50
2023/12/22 01:26:38;;;;;;;6.28;4.05;;;21.50;99.90;;;;;;4995187;28;20491;-50
2023/12/22 01:29:04;;;;;;;4.95;3.75;;;21.50;99.90;;;;;;4995221;28;20061;-50
2023/12/22 01:31:30;;;;;;;5.50;3.42;;;21.50;99.90;;;;;;4995235;28;20471;-50
2023/12/22 01:33:56;;;;;;;4.63;3.47;;;21.50;99.90;;;;;;4995115;28;20105;-50
2023/12/22 01:36:21;;;;;;;5.43;4.20;;;21.40;99.90;;;;;;4995038;28;20022;-50
2023/12/22 01:38:47;;;;;;;6.82;3.90;;;21.50;99.90;;;;;;4995167;28;20101;-50
2023/12/22 01:41:14;;;;;;;4.68;3.40;;;21.50;99.90;;;;;;4995022;28;20034;-50
2023/12/22 01:43:39;;;;;;;5.68;3.92;;;21.40;99.90;;;;;;4995062;28;20022;-50
2023/12/22 01:46:07;;;;;;;4.25;3.20;;;21.40;99.90;;;;;;4994890;28;20034;-50
2023/12/22 01:48:34;;;;;;;6.18;4.15;;;21.40;99.90;;;;;;4994916;28;20022;-50
2023/12/22 01:51:01;;;;;;;6.37;3.97;;;21.40;99.90;;;;;;4995017;28;20391;-50
2023/12/22 01:53:28;;;;;;;5.77;3.27;;;21.40;99.90;;;;;;4994906;28;20018;-50
2023/12/22 01:55:55;;;;;;;6.47;3.55;;;21.40;99.90;;;;;;4994854;28;20023;-50
2023/12/22 01:58:23;;;;;;;5.65;3.53;;;21.40;99.90;;;;;;4994816;28;20022;-51
2023/12/22 02:00:49;;;;;;;6.13;3.65;;;21.30;99.90;;;;;;5006960;23;20062;-49
2023/12/22 02:03:16;;;;;;;3.85;2.97;;;21.30;99.90;;;;;;4994659;28;20026;-49
2023/12/22 02:05:43;;;;;;;6.73;3.90;;;21.40;99.90;;;;;;4994749;28;20029;-50
2023/12/22 02:08:10;;;;;;;6.90;3.45;;;21.30;99.90;;;;;;4994495;28;20034;-49
2023/12/22 02:10:36;;;;;;;5.00;3.42;;;21.30;99.90;;;;;;4994439;28;20109;-49
2023/12/22 02:13:04;;;;;;;4.53;3.17;;;21.30;99.90;;;;;;4994486;28;20432;-49
2023/12/22 02:15:30;;;;;;;5.72;3.50;;;21.30;99.90;;;;;;4994510;28;20371;-49
2023/12/22 02:18:06;;;;;;;4.90;3.38;;;21.30;99.90;;;;;;4994455;28;20038;-50
2023/12/22 02:20:32;;;;;;;4.72;3.00;;;21.30;99.90;;;;;;4994247;28;20471;-49
2023/12/22 02:22:58;;;;;;;4.45;3.63;;;21.30;99.90;;;;;;4994363;28;20029;-49
2023/12/22 02:25:24;;;;;;;5.82;3.45;;;21.20;99.90;;;;;;4994313;28;20479;-50
2023/12/22 02:27:53;;;;;;;4.95;3.33;;;21.30;99.90;;;;;;5009298;28;20034;-49
2023/12/22 02:30:44;;;;;;;6.32;3.28;;;21.20;99.90;;;;;;4994404;28;20542;-49
2023/12/22 02:33:11;;;;;;;4.82;3.15;;;21.20;99.90;;;;;;4994027;28;20033;-50
2023/12/22 02:35:41;;;;;;;6.70;3.03;;;21.20;99.90;;;;;;4994119;28;20026;-49
2023/12/22 02:38:08;;;;;;;4.90;3.30;;;21.20;99.90;;;;;;4993983;28;20034;-49
2023/12/22 02:40:35;;;;;;;3.97;2.92;;;21.20;99.90;;;;;;4994047;28;20061;-49
2023/12/22 02:43:02;;;;;;;5.10;3.20;;;21.20;99.90;;;;;;4994034;28;20034;-49
2023/12/22 02:45:30;;;;;;;3.40;3.03;;;21.20;99.90;;;;;;4993840;28;20076;-49
2023/12/22 02:47:55;;;;;;;5.72;2.97;;;21.20;99.90;;;;;;4992418;28;20066;-49
2023/12/22 02:50:21;;;;;;;4.05;2.40;;;21.10;99.90;;;;;;4991756;28;20065;-49
2023/12/22 02:52:47;;;;;;;4.90;3.08;;;21.10;99.90;;;;;;4993767;28;20022;-49
2023/12/22 02:55:13;;;;;;;3.88;2.90;;;21.10;99.90;;;;;;4993715;28;20026;-49
2023/12/22 02:57:39;;;;;;;5.50;2.90;;;21.10;99.90;;;;;;4993865;28;20022;-49
2023/12/22 03:00:05;;;;;;;5.20;2.90;;;21.10;99.90;;;;;;4993517;28;20030;-49
2023/12/22 03:02:31;;;;;;;3.47;2.80;;;21.10;99.90;;;;;;5005866;23;20082;-49
2023/12/22 03:04:57;;;;;;;5.03;3.08;;;21.10;99.90;;;;;;4993509;28;20112;-49
2023/12/22 03:07:22;;;;;;;3.70;3.00;;;21.10;99.90;;;;;;4993315;28;20053;-49
2023/12/22 03:09:48;;;;;;;4.93;3.30;;;21.00;99.90;;;;;;4993446;28;20025;-50
2023/12/22 03:12:14;;;;;;;3.72;2.78;;;21.00;99.90;;;;;;4993321;28;20030;-49
2023/12/22 03:14:40;;;;;;;4.45;2.78;;;21.00;99.90;;;;;;4993376;28;20033;-50
2023/12/22 03:17:06;;;;;;;3.72;2.72;;;21.00;99.90;;;;;;4993304;28;20062;-50
2023/12/22 03:19:33;;;;;;;3.53;2.63;;;21.00;99.90;;;;;;4993173;28;20418;-49
2023/12/22 03:21:59;;;;;;;3.88;3.05;;;21.00;99.90;;;;;;4993214;28;20514;-50
2023/12/22 03:24:28;;;;;;;4.30;3.05;;;21.00;99.90;;;;;;4993171;28;20081;-50
2023/12/22 03:26:54;;;;;;;3.70;2.40;;;21.00;99.90;;;;;;4993011;28;20057;-50
2023/12/22 03:29:20;;;;;;;3.95;2.47;;;20.90;99.90;;;;;;4992983;28;20027;-50
2023/12/22 03:31:46;;;;;;;5.28;2.75;;;20.90;99.90;;;;;;4993063;28;20068;-49
2023/12/22 03:34:13;;;;;;;4.57;2.88;;;20.90;99.90;;;;;;4993325;28;20058;-49
2023/12/22 03:36:39;;;;;;;5.03;2.42;;;20.90;99.90;;;;;;4993102;28;20026;-49
2023/12/22 03:39:05;;;;;;;4.65;2.83;;;20.90;99.90;;;;;;4992941;28;20030;-49
2023/12/22 03:41:31;;;;;;;4.40;3.00;;;20.90;99.90;;;;;;4993027;28;20106;-49
2023/12/22 03:43:58;;;;;;;4.70;3.00;;;20.90;99.90;;;;;;4992970;28;20092;-49
2023/12/22 03:46:24;;;;;;;3.45;2.67;;;20.90;99.90;;;;;;4992832;28;20018;-50
2023/12/22 03:48:53;;;;;;;4.28;2.83;;;20.80;99.90;;;;;;4991653;28;20161;-49
2023/12/22 03:51:19;;;;;;;4.45;2.78;;;20.80;99.90;;;;;;4992878;28;20027;-50
2023/12/22 03:53:45;;;;;;;3.65;2.42;;;20.80;99.90;;;;;;4993058;28;20038;-50
2023/12/22 03:56:11;;;;;;;5.55;2.45;;;20.90;99.90;;;;;;4992964;28;20157;-50
2023/12/22 03:58:37;;;;;;;2.95;2.00;;;20.80;99.90;;;;;;4992703;28;20026;-49
2023/12/22 04:01:04;;;;;;;3.47;2.65;;;20.80;99.90;;;;;;4993008;28;20057;-50
2023/12/22 04:03:30;;;;;;;3.80;2.63;;;20.80;99.90;;;;;;4994676;28;20037;-50
2023/12/22 04:05:56;;;;;;;3.85;2.72;;;20.80;99.90;;;;;;4996825;28;20109;-50
2023/12/22 04:08:21;;;;;;;5.85;2.90;;;20.80;99.90;;;;;;4996829;28;20069;-49
2023/12/22 04:10:48;;;;;;;3.97;2.67;;;20.80;99.90;;;;;;4996729;28;20033;-49
2023/12/22 04:13:14;;;;;;;3.90;2.78;;;20.70;99.90;;;;;;4996742;28;20435;-50
2023/12/22 04:15:40;;;;;;;4.07;2.50;;;20.70;99.90;;;;;;4996676;28;20033;-49
2023/12/22 04:18:06;;;;;;;3.00;2.53;;;20.70;99.90;;;;;;4996664;28;20611;-49
2023/12/22 04:20:32;;;;;;;2.80;2.20;;;20.70;99.90;;;;;;4996570;28;20018;-49
2023/12/22 04:22:58;;;;;;;3.17;1.92;;;20.70;99.90;;;;;;4996550;28;20022;-49
2023/12/22 04:25:25;;;;;;;2.95;2.20;;;20.70;99.90;;;;;;4996379;28;20022;-51
2023/12/22 04:27:51;;;;;;;2.72;2.10;;;20.70;99.90;;;;;;4996266;28;20121;-49
2023/12/22 04:30:17;;;;;;;3.45;1.95;;;20.70;99.90;;;;;;4996443;28;20025;-49
2023/12/22 04:32:43;;;;;;;3.15;2.28;;;20.60;99.90;;;;;;4996565;28;20026;-49
2023/12/22 04:35:09;;;;;;;3.28;2.20;;;20.60;99.90;;;;;;4996237;28;20027;-49
2023/12/22 04:37:34;;;;;;;4.18;2.35;;;20.60;99.90;;;;;;4996255;28;20387;-49
2023/12/22 04:40:00;;;;;;;4.55;2.55;;;20.60;99.90;;;;;;4996275;28;20038;-49
2023/12/22 04:42:27;;;;;;;3.42;2.28;;;20.60;99.90;;;;;;4994923;28;20061;-49
2023/12/22 04:44:52;;;;;;;3.45;2.20;;;20.60;99.90;;;;;;4996089;28;20027;-49
2023/12/22 04:47:18;;;;;;;3.90;2.63;;;20.60;99.90;;;;;;4996238;28;20056;-49
2023/12/22 04:49:44;;;;;;;4.22;2.60;;;20.60;99.90;;;;;;4996198;28;20120;-49
2023/12/22 04:52:11;;;;;;;2.33;1.70;;;20.60;99.90;;;;;;4996051;28;20037;-49
2023/12/22 04:54:37;;;;;;;3.33;2.03;;;20.60;99.90;;;;;;4995937;28;20390;-48
2023/12/22 04:57:04;;;;;;;3.55;2.22;;;20.50;99.90;;;;;;4995769;28;20077;-49
2023/12/22 04:59:30;;;;;;;2.88;2.10;;;20.60;99.90;;;;;;4995968;28;20037;-49
2023/12/22 05:01:55;;;;;;;3.88;2.25;;;20.50;99.90;;;;;;4995362;28;20419;-49
2023/12/22 05:04:21;;;;;;;2.50;2.30;;;20.50;99.90;;;;;;4995832;28;20026;-49
2023/12/22 05:06:48;;;;;;;4.57;1.85;;;20.50;99.90;;;;;;4995890;28;20487;-49
2023/12/22 05:09:15;;;;;;;4.40;2.15;;;20.50;99.90;;;;;;4995631;28;20529;-49
2023/12/22 05:11:40;;;;;;;3.03;1.95;;;20.50;99.90;;;;;;4995700;28;20018;-49
2023/12/22 05:14:06;;;;;;;4.95;2.05;;;20.50;99.90;;;;;;4995079;28;20030;-49
2023/12/22 05:16:32;;;;;;;2.63;1.85;;;20.50;99.90;;;;;;4995592;28;20053;-49
2023/12/22 05:18:58;;;;;;;2.50;2.00;;;20.50;99.90;;;;;;4995446;28;20027;-49
2023/12/22 05:21:24;;;;;;;2.83;2.15;;;20.40;99.90;;;;;;4994152;28;20045;-49
2023/12/22 05:23:50;;;;;;;5.50;2.00;;;20.40;99.90;;;;;;4995498;28;20085;-49
2023/12/22 05:26:21;;;;;;;3.17;2.05;;;20.40;99.90;;;;;;4995443;28;20026;-49
2023/12/22 05:28:49;;;;;;;2.67;2.33;;;20.40;99.90;;;;;;4995585;28;20027;-49
2023/12/22 05:31:16;;;;;;;2.70;1.83;;;20.40;99.90;;;;;;4995543;28;20152;-49
2023/12/22 05:33:41;;;;;;;3.30;2.10;;;20.40;99.90;;;;;;4995205;28;20099;-49
2023/12/22 05:36:08;;;;;;;3.58;2.13;;;20.40;99.90;;;;;;4995236;28;20105;-49
2023/12/22 05:38:38;;;;;;;3.33;1.92;;;20.40;99.90;;;;;;4995037;28;20042;-49
2023/12/22 05:41:06;;;;;;;2.45;1.52;;;20.30;99.90;;;;;;4995102;28;20023;-50
2023/12/22 05:43:33;;;;;;;3.10;1.85;;;20.30;99.90;;;;;;4995064;28;20162;-49
2023/12/22 05:45:59;;;;;;;2.38;1.65;;;20.30;99.90;;;;;;4994913;28;20049;-49
2023/12/22 05:48:25;;;;;;;3.50;2.20;;;20.30;99.90;;;;;;4994872;28;20066;-48
2023/12/22 05:50:51;;;;;;;3.67;2.00;;;20.30;99.90;;;;;;4994900;28;20022;-49
2023/12/22 05:53:17;;;;;;;2.95;2.08;;;20.30;99.90;;;;;;4994997;28;20035;-49
2023/12/22 05:55:43;;;;;;;2.90;2.30;;;20.30;99.90;;;;;;5009947;28;20046;-49
2023/12/22 05:58:08;;;;;;;2.67;2.30;;;20.30;99.90;;;;;;4993482;28;20105;-49
2023/12/22 06:00:35;;;;;;;3.67;2.03;;;20.30;99.90;;;;;;4994501;28;20030;-48
2023/12/22 06:03:01;;;;;;;3.05;2.08;;;20.30;99.90;;;;;;4994729;28;20034;-49
2023/12/22 06:05:27;;;;;;;3.03;1.92;;;20.30;99.90;;;;;;4994612;28;20471;-49
2023/12/22 06:07:53;;;;;;;3.65;1.70;;;20.30;99.90;;;;;;4994470;28;20046;-49
2023/12/22 06:10:19;;;;;;;4.47;2.42;;;20.30;99.90;;;;;;4994664;28;20479;-49
2023/12/22 06:12:44;;;;;;;5.22;1.88;;;20.20;99.90;;;;;;4994480;28;20033;-49
2023/12/22 06:15:10;;;;;;;2.85;2.00;;;20.20;99.90;;;;;;4994480;28;20030;-49
2023/12/22 06:17:36;;;;;;;3.30;2.10;;;20.20;99.90;;;;;;4994481;28;20029;-49
2023/12/22 06:20:02;;;;;;;3.22;1.85;;;20.20;99.90;;;;;;4994385;28;20030;-49
2023/12/22 06:22:27;;;;;;;4.65;2.20;;;20.20;99.90;;;;;;4994229;28;20033;-49
2023/12/22 06:24:53;;;;;;;4.03;2.20;;;20.20;99.90;;;;;;4993912;28;20030;-49
2023/12/22 06:27:19;;;;;;;3.17;2.10;;;20.20;99.90;;;;;;4993805;28;20545;-49
2023/12/22 06:29:45;;;;;;;5.43;2.20;;;20.20;99.90;;;;;;4994151;28;20541;-49
2023/12/22 06:32:12;;;;;;;4.20;2.17;;;20.20;99.90;;;;;;4994053;28;20399;-49
2023/12/22 06:34:37;;;;;;;2.47;1.70;;;20.20;99.90;;;;;;4992754;28;20022;-49
2023/12/22 06:37:03;;;;;;;2.95;1.90;;;20.10;99.90;;;;;;4993979;28;20033;-49
2023/12/22 06:39:29;;;;;;;2.35;1.73;;;20.20;99.90;;;;;;4993820;28;20080;-49
2023/12/22 06:41:55;;;;;;;2.20;1.73;;;20.20;99.90;;;;;;4993910;28;20122;-49
2023/12/22 06:44:21;;;;;;;3.08;1.80;;;20.10;99.90;;;;;;4994079;28;20386;-50
2023/12/22 06:46:46;;;;;;;4.63;2.00;;;20.10;99.90;;;;;;4992504;28;20398;-49
2023/12/22 06:49:12;;;;;;;4.40;1.90;;;20.10;99.90;;;;;;4993739;28;20495;-49
2023/12/22 06:51:38;;;;;;;3.47;1.58;;;20.10;99.90;;;;;;4993700;28;20475;-50
2023/12/22 06:54:07;;;;;;;3.75;1.92;;;20.10;99.90;;;;;;4993699;28;20038;-49
2023/12/22 06:56:34;;;;;;;3.58;1.95;;;20.10;99.90;;;;;;4993683;28;20491;-50
2023/12/22 06:59:00;;;;;;;1.88;1.50;;;20.10;99.90;;;;;;4992405;28;20033;-50
2023/12/22 07:01:34;;;;;;;2.45;1.75;;;20.10;99.90;;;;;;4993361;28;20049;-50
2023/12/22 07:04:01;;;;;;;4.07;1.90;;;20.10;99.90;;;;;;4993409;28;20061;-50
2023/12/22 07:06:30;;;;;;;5.70;2.05;;;20.00;99.90;;;;;;4993381;28;20034;-50
2023/12/22 07:09:11;;;;;;;3.00;2.08;;;20.00;99.90;;;;;;4993497;28;20057;-50
2023/12/22 07:11:42;;;;;;;2.47;1.73;;;20.00;99.90;;;;;;4993491;28;20027;-50
2023/12/22 07:14:08;;;;;;;2.70;1.40;;;20.00;99.90;;;;;;4993303;28;20508;-50
2023/12/22 07:16:35;;;;;;;3.78;1.90;;;20.00;99.90;;;;;;4993318;28;20030;-50
2023/12/22 07:19:01;;;;;;;2.83;2.15;;;20.00;99.90;;;;;;4993367;28;20018;-50
2023/12/22 07:21:26;;;;;;;3.00;2.10;;;20.00;99.90;;;;;;4993376;28;20057;-50
2023/12/22 07:23:52;;;;;;;2.67;1.75;;;20.00;99.90;;;;;;4993465;28;20050;-50
2023/12/22 07:26:18;;;;;;;5.18;2.40;;;20.00;99.90;;;;;;4993062;28;20098;-50
2023/12/22 07:28:44;;;;;;;3.80;1.70;;;20.00;99.90;;;;;;4993190;28;20037;-50
2023/12/22 07:31:09;;;;;;;2.47;1.80;;;20.00;99.90;;;;;;4993044;28;20061;-50
2023/12/22 07:33:35;;;;;;;3.47;1.65;;;19.90;99.90;;;;;;4993057;28;20382;-50
2023/12/22 07:36:01;;;;;;;2.78;2.03;;;20.00;99.90;;;;;;4993105;28;20022;-50
2023/12/22 07:38:28;;;;;;;5.60;2.30;;;20.00;99.90;;;;;;5008012;28;20084;-50
2023/12/22 07:40:54;;;;;;;3.00;1.95;;;19.90;99.90;;;;;;4993229;28;20034;-50
2023/12/22 07:43:20;;;;;;;3.53;1.85;;;20.00;99.90;;;;;;4992851;28;20037;-50
2023/12/22 07:45:45;;;;;;;2.50;1.90;;;20.00;99.90;;;;;;4992863;28;20038;-50
2023/12/22 07:48:11;;;;;;;2.53;1.92;;;20.00;99.90;;;;;;4992765;28;20026;-50
2023/12/22 07:50:37;;;;;;;4.57;2.00;;;20.00;99.90;;;;;;4992811;28;20098;-50
2023/12/22 07:53:03;;;;;;;3.33;2.20;;;20.00;99.90;;;;;;5007869;28;20038;-50
2023/12/22 07:55:29;;;;;;;2.47;1.73;;;20.00;99.90;;;;;;4992625;28;20106;-50
2023/12/22 07:57:55;;;;;;;5.85;2.05;;;20.00;99.90;;;;;;4993036;28;20065;-50
2023/12/22 08:00:20;;;;;;;3.13;1.83;;;20.10;99.90;;;;;;4992683;28;20041;-50
2023/12/22 08:02:46;;;;;;;3.85;1.95;;;20.10;99.90;;;;;;4991278;28;20065;-50
2023/12/22 08:05:13;;;;;;;3.58;2.10;;;20.10;99.90;;;;;;4991427;28;20046;-50
2023/12/22 08:07:40;;;;;;;2.83;1.50;;;20.10;99.90;;;;;;4992681;28;20498;-50
2023/12/22 08:10:06;;;;;;;2.03;1.60;;;20.10;99.90;;;;;;4992807;28;20573;-50
2023/12/22 08:12:32;;;;;;;4.05;2.75;;;20.10;99.90;;;;;;5007786;28;20054;-50
2023/12/22 08:14:58;;;;;;;4.75;1.90;;;20.20;99.90;;;;;;4993017;28;20034;-50
2023/12/22 08:17:24;;;;;;;4.07;2.10;;;20.20;99.90;;;;;;5007945;28;20030;-50
2023/12/22 08:19:50;;;;;;;2.90;1.48;;;20.20;99.90;;;;;;4992629;28;20023;-50
2023/12/22 08:22:16;;;;;;;2.63;1.70;;;20.30;99.90;;;;;;4992599;28;20030;-50
2023/12/22 08:24:42;;;;;;;2.92;1.90;;;20.30;99.90;;;;;;4992496;28;20375;-50
2023/12/22 08:27:08;;;;;;;4.25;2.28;;;20.30;99.90;;;;;;4992470;28;20080;-50
2023/12/22 08:29:34;;;;;;;2.90;2.10;;;20.40;99.90;;;;;;4992475;28;20031;-50
2023/12/22 08:32:00;;;;;;;3.97;2.08;;;20.40;99.90;;;;;;4992406;28;20018;-50
2023/12/22 08:34:26;;;;;;;5.32;1.95;;;20.40;99.90;;;;;;4992623;28;20031;-50
2023/12/22 08:36:52;;;;;;;3.60;2.08;;;20.50;99.90;;;;;;4992458;28;20102;-50
2023/12/22 08:39:18;;;;;;;2.80;1.77;;;20.50;99.90;;;;;;4992305;28;20033;-50
2023/12/22 08:41:45;;;;;;;4.25;2.28;;;20.50;99.90;;;;;;4992393;28;20038;-50
2023/12/22 08:44:14;;;;;;;4.03;2.43;;;20.60;99.90;;;;;;4992415;28;20022;-50
2023/12/22 08:46:40;;;;;;;3.53;2.40;;;20.60;99.90;;;;;;4992148;28;20058;-50
2023/12/22 08:49:06;;;;;;;3.55;1.83;;;20.60;99.90;;;;;;4993387;28;20382;-50
2023/12/22 08:51:32;;;;;;;3.50;2.03;;;20.60;99.90;;;;;;4995893;28;20124;-50
2023/12/22 08:53:58;;;;;;;4.65;2.10;;;20.70;99.90;;;;;;4996200;28;20491;-50
2023/12/22 08:56:24;;;;;;;3.30;2.20;;;20.70;99.90;;;;;;4995773;28;20018;-50
2023/12/22 08:58:54;;;;;;;3.38;2.00;;;20.70;99.90;;;;;;4995715;28;20034;-50
2023/12/22 09:01:21;;;;;;;4.25;2.08;;;20.70;99.90;;;;;;4995456;28;20049;-50
2023/12/22 09:03:48;;;;;;;3.83;2.03;;;20.80;99.90;;;;;;4995808;28;20030;-50
2023/12/22 09:06:18;;;;;;;4.32;2.33;;;20.80;99.90;;;;;;4994510;28;20023;-50
2023/12/22 09:08:44;;;;;;;5.20;2.30;;;20.90;99.90;;;;;;4995518;28;20038;-50
2023/12/22 09:11:16;;;;;;;3.92;2.10;;;20.90;99.90;;;;;;4995616;28;20027;-50
2023/12/22 09:13:42;;;;;;;4.85;2.05;;;20.90;99.90;;;;;;4995288;28;20030;-50
2023/12/22 09:16:08;;;;;;;4.88;2.67;;;21.00;99.90;;;;;;4995628;28;20351;-50
2023/12/22 09:18:34;;;;;;;2.85;1.75;;;21.00;99.90;;;;;;4995549;28;20018;-50
2023/12/22 09:21:01;;;;;;;3.10;2.03;;;21.00;99.90;;;;;;4994348;28;20053;-50
2023/12/22 09:23:27;;;;;;;4.10;2.55;;;21.00;99.90;;;;;;4995304;28;20022;-50
2023/12/22 09:25:53;;;;;;;3.80;2.08;;;21.10;99.90;;;;;;4995323;28;20037;-50
2023/12/22 09:28:19;;;;;;;3.35;2.25;;;21.10;99.90;;;;;;4995144;28;20034;-50
2023/12/22 09:30:44;;;;;;;3.92;2.30;;;21.10;99.90;;;;;;4995123;28;20038;-51
2023/12/22 09:33:10;;;;;;;4.20;2.40;;;21.20;99.90;;;;;;5010227;28;20026;-50
2023/12/22 09:35:36;;;;;;;5.03;2.50;;;21.20;99.90;;;;;;4995092;28;20026;-50
2023/12/22 09:38:03;;;;;;;4.35;2.53;;;21.20;99.90;;;;;;4995313;28;20098;-50
2023/12/22 09:40:30;;;;;;;4.57;2.42;;;21.30;99.90;;;;;;4995167;28;20053;-50
2023/12/22 09:42:58;;;;;;;3.17;2.17;;;21.30;99.90;;;;;;4994938;28;20022;-50
2023/12/22 09:45:24;;;;;;;4.18;2.70;;;21.30;99.90;;;;;;4994767;28;20117;-50
2023/12/22 09:47:52;;;;;;;3.67;2.60;;;21.30;99.90;;;;;;4994766;28;20039;-50
2023/12/22 09:50:18;;;;;;;4.78;2.28;;;21.40;99.90;;;;;;4994770;28;20034;-50
2023/12/22 09:52:45;;;;;;;4.38;2.80;;;21.40;99.90;;;;;;5009720;28;20030;-50
2023/12/22 09:55:15;;;;;;;3.78;2.65;;;21.40;99.90;;;;;;4994659;28;20019;-52
2023/12/22 09:57:42;;;;;;;3.97;2.50;;;21.50;99.90;;;;;;4994675;28;20034;-51
2023/12/22 10:00:12;;;;;;;4.53;3.33;;;21.50;99.90;;;;;;4994551;28;20018;-51
2023/12/22 10:02:39;;;;;;;3.40;2.53;;;21.60;99.90;;;;;;4992830;28;20346;-51
2023/12/22 10:05:06;;;;;;;4.95;3.08;;;21.60;99.90;;;;;;4994572;28;20041;-51
2023/12/22 10:07:33;;;;;;;5.05;2.83;;;21.60;99.90;;;;;;4994660;28;20092;-50
2023/12/22 10:10:00;;;;;;;6.97;2.97;;;21.70;99.90;;;;;;4994469;28;20022;-50
2023/12/22 10:12:30;;;;;;;2.83;2.20;;;21.70;99.90;;;;;;4994435;28;20517;-51
2023/12/22 10:14:58;;;;;;;5.88;2.65;;;21.80;99.90;;;;;;4994399;28;20279;-50
2023/12/22 10:17:25;;;;;;;4.72;2.88;;;21.80;99.90;;;;;;4994367;28;20018;-51
2023/12/22 10:19:50;;;;;;;5.47;2.40;;;21.90;99.90;;;;;;4994158;28;20022;-51
2023/12/22 10:22:17;;;;;;;4.25;2.45;;;21.90;99.90;;;;;;4994235;28;20022;-50
2023/12/22 10:24:52;;;;;;;4.53;2.72;;;21.90;99.90;;;;;;4994119;28;20025;-51
2023/12/22 10:27:23;;;;;;;4.57;2.35;;;22.00;99.90;;;;;;4993852;28;20062;-51
2023/12/22 10:29:58;;;;;;;4.28;2.70;;;22.10;99.90;;;;;;4993953;28;20073;-51
2023/12/22 10:32:24;;;;;;;4.28;3.10;;;22.10;99.90;;;;;;4993898;28;20034;-50
2023/12/22 10:34:53;;;;;;;4.65;2.80;;;22.20;99.90;;;;;;4992574;28;20068;-51
2023/12/22 10:37:19;;;;;;;6.45;2.72;;;22.20;99.90;;;;;;4993876;28;20037;-51
2023/12/22 10:39:48;;;;;;;4.47;2.63;;;22.20;99.90;;;;;;4993654;28;20427;-51
2023/12/22 10:42:14;;;;;;;5.88;2.80;;;22.30;99.90;;;;;;4993851;28;20620;-50
2023/12/22 10:44:41;;;;;;;4.55;2.65;;;22.30;99.90;;;;;;4993664;28;20126;-50
2023/12/22 10:47:07;;;;;;;4.47;2.50;;;22.40;99.90;;;;;;4993658;28;20034;-50
2023/12/22 10:49:33;;;;;;;6.45;3.03;;;22.40;99.90;;;;;;4993893;28;20089;-51
2023/12/22 10:51:59;;;;;;;3.70;2.47;;;22.50;99.90;;;;;;5008794;28;20031;-51
2023/12/22 10:54:26;;;;;;;5.25;3.45;;;22.50;99.90;;;;;;4993679;28;20038;-51
2023/12/22 10:56:52;;;;;;;6.47;2.80;;;22.50;99.90;;;;;;4993587;28;20105;-51
2023/12/22 10:59:24;;;;;;;4.07;3.20;;;22.60;99.90;;;;;;5008440;28;20105;-51
2023/12/22 11:01:53;;;;;;;4.40;2.63;;;22.60;99.90;;;;;;4993230;28;20046;-51
2023/12/22 11:04:22;;;;;;;4.82;3.25;;;22.60;99.90;;;;;;4993395;28;20517;-51
2023/12/22 11:06:51;;;;;;;3.72;2.60;;;22.70;99.90;;;;;;4993269;28;20073;-50
2023/12/22 11:09:18;;;;;;;5.35;2.97;;;22.70;99.90;;;;;;4993161;28;20387;-50
2023/12/22 11:11:46;;;;;;;4.95;3.28;;;22.70;99.90;;;;;;4991377;28;20026;-50
2023/12/22 11:14:13;;;;;;;4.55;3.10;;;22.80;99.90;;;;;;4993167;28;20478;-50
2023/12/22 11:16:47;;;;;;;7.57;3.05;;;22.80;99.90;;;;;;4993143;28;20033;-51
2023/12/22 11:19:14;;;;;;;4.90;2.97;;;22.80;99.90;;;;;;4993340;28;20028;-51
2023/12/22 11:21:40;;;;;;;4.85;2.88;;;22.90;99.90;;;;;;4992917;28;20030;-49
2023/12/22 11:24:08;;;;;;;5.82;3.70;;;22.90;99.90;;;;;;4993292;28;20026;-51
2023/12/22 11:26:34;;;;;;;4.20;3.15;;;22.90;99.90;;;;;;4993017;28;20018;-50
2023/12/22 11:29:02;;;;;;;6.30;3.10;;;23.00;99.90;;;;;;4991751;28;20038;-50
2023/12/22 11:31:31;;;;;;;4.22;3.00;;;23.00;99.90;;;;;;4993040;28;20037;-50
2023/12/22 11:34:01;;;;;;;3.72;3.13;;;23.00;99.90;;;;;;4992786;28;20104;-50
2023/12/22 11:36:29;;;;;;;5.50;3.28;;;23.10;99.90;;;;;;4992827;28;20031;-50
2023/12/22 11:38:55;;;;;;;4.30;3.00;;;23.10;99.90;;;;;;4992864;28;20030;-50
2023/12/22 11:41:26;;;;;;;5.18;3.33;;;23.10;99.90;;;;;;4991505;28;20027;-50
2023/12/22 11:43:54;;;;;;;4.10;3.10;;;23.10;99.90;;;;;;4992862;28;20412;-50
2023/12/22 11:46:20;;;;;;;4.88;3.55;;;23.10;99.90;;;;;;4992822;28;20105;-50
2023/12/22 11:48:51;;;;;;;5.40;3.08;;;23.20;99.90;;;;;;4992777;28;20092;-50
2023/12/22 11:51:17;;;;;;;4.80;3.25;;;23.20;99.90;;;;;;4992663;28;20093;-50
2023/12/22 11:53:43;;;;;;;3.80;2.53;;;23.20;99.90;;;;;;4992862;28;20057;-50
2023/12/22 11:56:10;;;;;;;5.32;3.88;;;23.20;99.90;;;;;;4992925;28;20026;-51
2023/12/22 11:58:41;;;;;;;4.10;2.70;;;23.30;99.90;;;;;;4992881;28;20034;-51
2023/12/22 12:01:12;;;;;;;5.95;3.72;;;23.30;99.90;;;;;;4992707;28;20307;-51
2023/12/22 12:03:54;;;;;;;5.35;3.45;;;23.40;99.90;;;;;;4992964;28;20054;-50
2023/12/22 12:06:25;;;;;;;5.72;3.45;;;23.40;99.90;;;;;;4992685;28;20029;-50
2023/12/22 12:08:53;;;;;;;5.03;3.42;;;23.40;99.90;;;;;;4992632;28;20050;-50
2023/12/22 12:11:23;;;;;;;5.43;3.58;;;23.40;99.90;;;;;;4992608;28;20364;-50
2023/12/22 12:13:50;;;;;;;4.22;2.83;;;23.40;99.90;;;;;;4992494;28;20382;-50
2023/12/22 12:16:21;;;;;;;5.53;3.50;;;23.40;99.90;;;;;;4992561;28;20022;-50
2023/12/22 12:18:47;;;;;;;4.63;3.38;;;23.50;99.90;;;;;;4991209;28;20083;-50
2023/12/22 12:21:15;;;;;;;5.93;3.58;;;23.50;99.90;;;;;;4992500;28;20104;-50
2023/12/22 12:23:41;;;;;;;6.18;3.70;;;23.50;99.90;;;;;;4993082;28;20071;-50
2023/12/22 12:26:08;;;;;;;5.13;3.03;;;23.50;99.90;;;;;;4996602;28;20073;-50
2023/12/22 12:28:36;;;;;;;7.23;3.50;;;23.60;99.90;;;;;;4996173;28;20046;-50
2023/12/22 12:31:05;;;;;;;4.80;3.42;;;23.60;99.90;;;;;;4996112;28;20483;-50
2023/12/22 12:33:31;;;;;;;5.78;3.35;;;23.60;99.90;;;;;;4996100;28;20062;-50
2023/12/22 12:35:59;;;;;;;7.00;3.80;;;23.60;99.90;;;;;;4996102;28;20434;-50
2023/12/22 12:38:48;;;;;;;5.55;3.75;;;23.70;99.90;;;;;;4996185;28;20022;-50
2023/12/22 12:41:16;;;;;;;3.70;2.78;;;23.70;99.90;;;;;;4992598;28;20507;-50
2023/12/22 12:43:43;;;;;;;4.35;3.58;;;23.70;99.90;;;;;;4996182;28;20034;-50
2023/12/22 12:46:10;;;;;;;4.40;2.90;;;23.70;99.90;;;;;;4996258;28;20031;-50